Birdseye, IN

1:23 AM EST on December 21, 2014 (GMT -0500)
Godman Army Air Field | Change Station
CLOSE
Current Station
Airport
Location: Fort Knox,
Elevation: 755 ft
Nearby Weather Stations

Elev 755 ft 37.91 °N, 85.97 °W | Updated 25 minutes ago

Clear
Clear
26 °F
Feels Like 26 °F
N
2
Wind Variable Wind from NE

Today
High -- | Low -- °F
--% Chance of Precip.
Yesterday
High -- | Low -- °F
Precip. -- in
8:00 AM 5:30 PM
Waning Crescent, 1% visible
Pressure 30.30 in
Visibility 9.0 miles
Clouds Clear
Dew Point 23 °F
Humidity 91%
Rainfall 0.00 in
Snow Depth Not available.
UV 0 out of 12
Pollen .30 out of 12
Air Quality Not available.
Flu Activity Not available.
METAR KFTK 210558Z AUTO 05002KT 9SM R18/5500FT CLR M04/M05 A3026 RMK AO2 SLP258 T10361049 11005 21044 58004

More Conditions Fewer Conditions

Pressure 30.30 in
Visibility 9.0 miles
Clouds Clear
Dew Point 23 °F
Humidity 91%
Rainfall 0.00 in
Snow Depth Not available.
UV 0 out of 12
Pollen .30 out of 12
Air Quality Not available.
Flu Activity Not available.
METAR KFTK 210558Z AUTO 05002KT 9SM R18/5500FT CLR M04/M05 A3026 RMK AO2 SLP258 T10361049 11005 21044 58004

More Conditions Fewer Conditions

10-Day Weather Forecast

Almanac

Astronomy

Dec. 21, 2014 Rise Set
Actual Time
Civil Twilight
Nautical Twilight
Astronomical Twilight
Moon
Length of Visible Light
Length of Day
Tomorrow will be .
, % of the Moon is Illuminated

Today's Extremes

State Highs State Lows

Community

WunderPhotos

Upload Photos

1,779,360 photos uploaded!

WunderBlogs® & News

Nearby

Air Quality

  Air Quality AQ Index Pollutant
Not available.

Snow Depth

Station Depth Elevation

Earthquake Activity

City Distance Mag. Time & Date
Minimum magnitude displayed is 2.5.

Coastal Water Temperatures

Place Temperature

Nearby Weather Stations